Time;durP1;ratioP1;P1;durP2;ratioP2;P2;SDS_P1;SDS_P2;PMS_P1;PMS_P2;Temp;Humidity;BMP_temperature;BMP_pressure;BME280_temperature;BME280_humidity;BME280_pressure;Samples;Min_cycle;Max_cycle;Signal;HPM_P1;HPM_P2
2021/01/20 00:02:27;;;;;;;15.52;10.20;;;;;;;12.04;62.56;99966.84;4926373;29;20040;-86
2021/01/20 00:04:52;;;;;;;18.40;10.75;;;;;;;12.12;62.15;99958.34;4932868;29;20100;-85
2021/01/20 00:07:18;;;;;;;15.75;10.02;;;;;;;11.97;62.17;99957.88;4928096;29;20040;-85
2021/01/20 00:09:43;;;;;;;18.40;12.23;;;;;;;12.03;62.10;99931.63;4926475;29;21033;-83
2021/01/20 00:12:09;;;;;;;13.63;12.07;;;;;;;12.06;62.20;99942.91;4927785;29;20040;-84
2021/01/20 00:14:35;;;;;;;19.95;11.27;;;;;;;11.86;62.75;99940.38;4928748;29;20118;-84
2021/01/20 00:17:00;;;;;;;16.00;11.25;;;;;;;11.86;62.89;99956.72;4928478;29;20019;-86
2021/01/20 00:19:26;;;;;;;15.52;11.57;;;;;;;11.73;62.93;99940.56;4930651;29;20038;-87
2021/01/20 00:21:51;;;;;;;19.52;11.32;;;;;;;11.87;62.82;99943.97;4927169;29;20038;-85
2021/01/20 00:24:16;;;;;;;14.73;10.73;;;;;;;11.89;62.80;99947.28;4927936;29;20039;-83
2021/01/20 00:26:42;;;;;;;20.83;12.55;;;;;;;12.09;62.19;99938.91;4914153;29;20035;-87
2021/01/20 00:29:07;;;;;;;20.20;12.68;;;;;;;12.18;61.63;99934.78;4928201;29;20398;-86
2021/01/20 00:31:33;;;;;;;18.98;12.85;;;;;;;11.96;62.49;99931.72;4928635;29;20035;-86
2021/01/20 00:33:58;;;;;;;17.17;11.45;;;;;;;12.06;62.37;99937.44;4927470;29;20043;-85
2021/01/20 00:36:24;;;;;;;17.55;11.07;;;;;;;11.93;62.78;99934.91;4928207;29;20051;-85
2021/01/20 00:38:50;;;;;;;22.55;15.40;;;;;;;12.11;62.18;99923.13;4928204;29;20040;-84
2021/01/20 00:41:15;;;;;;;17.77;11.88;;;;;;;12.00;62.50;99927.47;4925923;29;20068;-83
2021/01/20 00:43:41;;;;;;;23.58;14.07;;;;;;;11.94;62.52;99934.69;4929049;29;20394;-85
2021/01/20 00:46:06;;;;;;;20.50;18.23;;;;;;;11.99;62.51;99915.75;4930538;29;20040;-83
2021/01/20 00:48:31;;;;;;;20.80;14.27;;;;;;;12.02;62.54;99911.72;4942496;29;20047;-84
2021/01/20 00:50:57;;;;;;;19.52;12.02;;;;;;;12.11;62.40;99902.19;4929595;29;20126;-82
2021/01/20 00:53:24;;;;;;;15.27;10.43;;;;;;;12.00;62.61;99911.13;4911815;29;20036;-82
2021/01/20 00:55:50;;;;;;;18.20;15.52;;;;;;;12.03;62.31;99894.31;4926673;29;20028;-85
2021/01/20 00:58:16;;;;;;;27.88;13.85;;;;;;;12.11;62.22;99902.19;4923631;29;20027;-85
2021/01/20 01:00:42;;;;;;;22.38;13.45;;;;;;;12.39;61.49;99906.22;4930028;29;20044;-83
2021/01/20 01:03:07;;;;;;;18.70;14.63;;;;;;;12.17;62.04;99894.97;4931276;29;20032;-84
2021/01/20 01:05:34;;;;;;;20.75;13.95;;;;;;;11.98;62.67;99889.53;4928911;29;20040;-84
2021/01/20 01:07:59;;;;;;;17.20;15.10;;;;;;;12.36;61.45;99898.50;4929701;29;20122;-81
2021/01/20 01:10:25;;;;;;;18.70;13.50;;;;;;;12.24;61.83;99892.16;4928739;29;20500;-82
2021/01/20 01:12:50;;;;;;;18.88;11.85;;;;;;;12.12;62.14;99887.47;4930928;29;20872;-85
2021/01/20 01:15:16;;;;;;;18.42;13.55;;;;;;;12.05;62.48;99881.28;4925298;29;20036;-82
2021/01/20 01:17:41;;;;;;;19.02;14.52;;;;;;;12.23;62.05;99877.69;4930459;29;20111;-82
2021/01/20 01:20:07;;;;;;;22.35;15.30;;;;;;;12.04;62.49;99884.25;4903990;29;20044;-83
2021/01/20 01:22:33;;;;;;;20.48;15.57;;;;;;;12.01;62.97;99880.09;4928715;29;20039;-81
2021/01/20 01:24:58;;;;;;;20.98;16.08;;;;;;;12.09;62.51;99879.75;4930571;29;20407;-82
2021/01/20 01:27:23;;;;;;;23.70;16.30;;;;;;;12.17;62.52;99873.16;4928149;29;20052;-82
2021/01/20 01:29:49;;;;;;;21.23;14.82;;;;;;;12.09;62.45;99870.75;4930759;29;20390;-86
2021/01/20 01:32:14;;;;;;;18.20;14.55;;;;;;;12.03;62.92;99877.13;4927384;29;20119;-82
2021/01/20 01:34:40;;;;;;;17.73;14.15;;;;;;;12.12;62.54;99881.19;4929725;29;20502;-83
2021/01/20 01:37:05;;;;;;;19.17;15.18;;;;;;;11.92;63.22;99867.81;4930235;29;20036;-82
2021/01/20 01:39:33;;;;;;;20.50;14.23;;;;;;;12.09;63.10;99868.84;4928659;29;20032;-81
2021/01/20 01:41:59;;;;;;;16.98;14.68;;;;;;;12.27;62.49;99875.34;4924820;29;20040;-83
2021/01/20 01:44:24;;;;;;;17.98;14.40;;;;;;;11.93;63.55;99866.78;4929141;29;20574;-83
2021/01/20 01:46:52;;;;;;;26.65;15.45;;;;;;;11.91;63.94;99853.34;4929449;29;20027;-84
2021/01/20 01:49:18;;;;;;;20.45;14.80;;;;;;;12.18;63.30;99867.47;4942153;29;20119;-83
2021/01/20 01:51:43;;;;;;;22.40;15.60;;;;;;;12.15;63.26;99870.66;4926525;29;20114;-83
2021/01/20 01:54:09;;;;;;;20.65;13.63;;;;;;;12.02;63.79;99849.06;4930289;29;20035;-84
2021/01/20 01:56:35;;;;;;;24.30;18.15;;;;;;;12.01;63.81;99858.28;4927646;29;20036;-84
2021/01/20 01:59:01;;;;;;;23.75;16.58;;;;;;;12.02;63.80;99843.59;4927620;29;20035;-84
2021/01/20 02:01:26;;;;;;;21.70;17.25;;;;;;;12.31;62.78;99847.38;4925890;29;20487;-84
2021/01/20 02:03:52;;;;;;;18.85;14.65;;;;;;;12.26;62.87;99854.59;4927949;29;20091;-86
2021/01/20 02:06:17;;;;;;;18.55;13.65;;;;;;;11.84;63.72;99844.44;4927168;29;20040;-87
2021/01/20 02:08:44;;;;;;;23.50;17.02;;;;;;;12.05;63.51;99837.69;4910612;29;20055;-83
2021/01/20 02:11:25;;;;;;;19.80;15.05;;;;;;;12.30;62.58;99833.97;4931871;29;20043;-82
2021/01/20 02:14:21;;;;;;;22.35;15.60;;;;;;;12.09;63.14;99825.25;4929775;29;20031;-85
2021/01/20 02:17:21;;;;;;;23.88;16.33;;;;;;;12.01;62.81;99822.84;4925965;29;20050;-83
2021/01/20 02:19:55;;;;;;;20.23;16.55;;;;;;;12.01;63.31;99825.59;4922454;29;20087;-83
2021/01/20 02:22:39;;;;;;;17.70;14.65;;;;;;;12.07;62.62;99816.47;4926502;29;20030;-87
2021/01/20 02:25:35;;;;;;;22.13;15.45;;;;;;;12.19;62.75;99827.44;4927237;29;20028;-81
2021/01/20 02:28:17;;;;;;;19.25;15.07;;;;;;;12.25;62.57;99807.41;4929326;29;20075;-81
2021/01/20 02:30:44;;;;;;;15.65;13.48;;;;;;;11.98;63.48;99818.69;4927768;29;20491;-85
2021/01/20 02:33:11;;;;;;;16.40;13.70;;;;;;;12.18;62.80;99804.78;4927928;29;20102;-82
2021/01/20 02:35:39;;;;;;;21.50;16.80;;;;;;;12.11;63.58;99809.50;4923596;29;20126;-82
2021/01/20 02:38:05;;;;;;;17.95;15.25;;;;;;;12.16;63.48;99806.09;4930395;29;20031;-85
2021/01/20 02:40:31;;;;;;;17.63;14.13;;;;;;;12.31;63.02;99802.91;4926480;29;20079;-84
2021/01/20 02:42:58;;;;;;;15.90;13.38;;;;;;;12.34;63.14;99805.16;4928065;29;20055;-82
2021/01/20 02:45:24;;;;;;;20.45;14.05;;;;;;;12.23;63.26;99803.25;4926918;29;20036;-85
2021/01/20 02:47:51;;;;;;;21.45;14.60;;;;;;;12.36;62.98;99795.69;4927997;29;20035;-83
2021/01/20 02:50:16;;;;;;;18.13;14.98;;;;;;;12.45;62.77;99785.28;4925444;29;20143;-83
2021/01/20 02:53:02;;;;;;;16.38;13.27;;;;;;;12.54;62.63;99797.53;4927947;29;20106;-81
2021/01/20 02:55:29;;;;;;;17.25;14.20;;;;;;;12.51;62.61;99791.69;4927738;29;20040;-83
2021/01/20 02:58:00;;;;;;;18.73;12.98;;;;;;;12.42;62.81;99793.09;4926215;29;20032;-84
2021/01/20 03:00:27;;;;;;;14.77;13.18;;;;;;;12.57;62.40;99782.56;4928552;29;20086;-84
2021/01/20 03:02:54;;;;;;;18.10;12.90;;;;;;;12.47;62.52;99769.53;4909413;29;20028;-83
2021/01/20 03:05:20;;;;;;;15.70;13.50;;;;;;;12.57;62.59;99784.47;4927821;29;20055;-83
2021/01/20 03:07:46;;;;;;;19.05;14.75;;;;;;;12.52;62.87;99772.34;4928056;29;20032;-83
2021/01/20 03:10:13;;;;;;;17.55;12.90;;;;;;;12.54;62.94;99786.59;4923227;29;20162;-84
2021/01/20 03:12:41;;;;;;;16.42;12.88;;;;;;;12.67;62.71;99777.34;4928653;29;20039;-83
2021/01/20 03:15:16;;;;;;;20.60;14.25;;;;;;;12.55;63.01;99779.25;4925182;29;20032;-81
2021/01/20 03:17:42;;;;;;;16.40;14.07;;;;;;;12.53;63.01;99779.47;4928939;29;20044;-82
2021/01/20 03:20:08;;;;;;;16.25;11.50;;;;;;;12.61;62.78;99774.75;4927685;29;20646;-82
2021/01/20 03:22:33;;;;;;;17.52;14.13;;;;;;;12.34;63.75;99770.56;4919769;29;20424;-84
2021/01/20 03:24:59;;;;;;;16.17;13.65;;;;;;;12.54;63.12;99764.78;4929710;29;20043;-82
2021/01/20 03:27:24;;;;;;;16.95;13.93;;;;;;;12.51;63.08;99764.41;4928726;29;20051;-82
2021/01/20 03:29:49;;;;;;;16.02;12.95;;;;;;;12.30;63.64;99761.19;4929174;29;20835;-82
2021/01/20 03:32:15;;;;;;;14.75;12.48;;;;;;;12.58;62.98;99770.59;4933152;29;20044;-82
2021/01/20 03:34:40;;;;;;;16.33;12.50;;;;;;;12.39;63.56;99761.69;4928410;29;20040;-83
2021/01/20 03:37:06;;;;;;;20.17;15.45;;;;;;;12.48;63.07;99767.59;4927815;29;20048;-83
2021/01/20 03:39:31;;;;;;;17.27;13.57;;;;;;;12.71;63.15;99756.72;4924519;29;20034;-82
2021/01/20 03:41:57;;;;;;;19.02;14.05;;;;;;;12.66;63.23;99756.59;4931846;29;20046;-82
2021/01/20 03:44:22;;;;;;;16.58;14.77;;;;;;;12.84;62.77;99754.81;4928520;29;20040;-82
2021/01/20 03:46:50;;;;;;;19.13;14.27;;;;;;;12.71;62.78;99753.16;4933893;29;20035;-83
2021/01/20 03:49:16;;;;;;;17.33;12.10;;;;;;;12.75;62.75;99742.63;4932802;29;20394;-83
2021/01/20 03:51:41;;;;;;;18.95;13.68;;;;;;;12.66;63.07;99744.88;4929369;29;20032;-83
2021/01/20 03:54:06;;;;;;;17.67;13.02;;;;;;;12.44;63.44;99750.06;4933925;29;20036;-81
2021/01/20 03:56:32;;;;;;;17.40;15.40;;;;;;;12.66;63.17;99742.94;4915536;29;20491;-82
2021/01/20 03:58:57;;;;;;;19.88;14.60;;;;;;;12.67;62.94;99741.91;4930875;29;20075;-82
2021/01/20 04:01:23;;;;;;;17.13;12.68;;;;;;;12.69;62.79;99744.38;4931473;29;20039;-85
2021/01/20 04:03:48;;;;;;;16.55;11.77;;;;;;;12.72;62.53;99758.38;4929172;29;20447;-82
2021/01/20 04:06:14;;;;;;;19.88;14.57;;;;;;;12.63;63.15;99745.34;4931174;29;20043;-82
2021/01/20 04:08:39;;;;;;;16.98;13.30;;;;;;;12.82;62.33;99744.16;4930525;29;20110;-84
2021/01/20 04:11:05;;;;;;;17.92;14.38;;;;;;;12.69;62.77;99738.94;4932583;29;20048;-83
2021/01/20 04:13:30;;;;;;;22.33;16.08;;;;;;;12.59;63.05;99723.16;4924444;29;20036;-84
2021/01/20 04:15:56;;;;;;;17.75;14.60;;;;;;;12.50;63.66;99728.13;4926679;29;20036;-82
2021/01/20 04:18:21;;;;;;;20.70;15.68;;;;;;;12.40;63.89;99718.88;4928519;29;20036;-83
2021/01/20 04:20:47;;;;;;;19.15;14.82;;;;;;;12.85;62.27;99727.31;4929948;29;20043;-83
2021/01/20 04:23:12;;;;;;;18.30;13.88;;;;;;;12.59;63.05;99717.72;4930106;29;20031;-84
2021/01/20 04:25:38;;;;;;;20.20;13.93;;;;;;;12.63;62.93;99707.16;4929372;29;20050;-83
2021/01/20 04:28:03;;;;;;;19.88;14.23;;;;;;;12.59;62.74;99700.50;4928313;29;20039;-83
2021/01/20 04:30:29;;;;;;;19.23;13.45;;;;;;;12.60;62.78;99691.25;4927728;29;20040;-85
2021/01/20 04:32:54;;;;;;;15.90;13.95;;;;;;;12.61;62.54;99695.66;4929832;29;20032;-84
2021/01/20 04:35:19;;;;;;;18.55;12.27;;;;;;;12.71;62.34;99693.13;4927431;29;20110;-83
2021/01/20 04:37:45;;;;;;;19.08;13.27;;;;;;;12.30;63.31;99697.66;4926846;29;20498;-85
2021/01/20 04:40:11;;;;;;;15.82;13.07;;;;;;;12.69;62.42;99690.66;4930938;29;20039;-83
2021/01/20 04:42:37;;;;;;;20.00;14.77;;;;;;;12.67;62.25;99686.53;4946967;29;20062;-87
2021/01/20 04:45:03;;;;;;;18.63;13.43;;;;;;;13.03;61.27;99690.00;4933149;29;20038;-83
2021/01/20 04:47:29;;;;;;;18.60;12.52;;;;;;;12.69;62.11;99679.75;4932827;29;20031;-84
2021/01/20 04:49:57;;;;;;;19.13;12.85;;;;;;;12.49;62.59;99679.28;4928257;29;20032;-82
2021/01/20 04:52:26;;;;;;;19.95;14.75;;;;;;;12.75;62.08;99679.88;4924438;29;20696;-82
2021/01/20 04:54:53;;;;;;;19.75;14.73;;;;;;;12.54;62.83;99661.16;4911965;29;20046;-84
2021/01/20 04:57:19;;;;;;;16.27;12.38;;;;;;;12.65;62.45;99658.63;4928752;29;20054;-82
2021/01/20 04:59:44;;;;;;;15.57;12.88;;;;;;;12.70;62.16;99654.13;4926444;29;20495;-84
2021/01/20 05:02:10;;;;;;;19.60;13.63;;;;;;;12.54;62.52;99657.56;4929750;29;20055;-84
2021/01/20 05:04:39;;;;;;;15.63;12.70;;;;;;;12.57;62.33;99657.09;4932005;29;20043;-84
2021/01/20 05:07:08;;;;;;;16.90;12.63;;;;;;;12.67;61.98;99640.97;4929584;29;20123;-82
2021/01/20 05:09:34;;;;;;;16.08;12.85;;;;;;;12.67;62.16;99642.88;4928410;29;20040;-84
2021/01/20 05:12:00;;;;;;;16.65;14.35;;;;;;;12.52;62.37;99646.91;4926840;29;20043;-82
2021/01/20 05:14:25;;;;;;;18.02;13.77;;;;;;;12.66;62.20;99642.03;4930987;29;20032;-83
2021/01/20 05:16:53;;;;;;;16.17;13.30;;;;;;;12.64;61.96;99657.81;4929709;29;20043;-85
2021/01/20 05:19:45;;;;;;;15.82;13.48;;;;;;;12.51;62.27;99620.72;4931570;29;20122;-83
2021/01/20 05:22:13;;;;;;;;;;;;;;;12.64;62.00;99638.72;4927598;29;20051;-85
2021/01/20 05:24:39;;;;;;;12.90;11.60;;;;;;;12.91;61.38;99638.16;4932328;29;19919;-85
2021/01/20 05:27:05;;;;;;;19.25;14.05;;;;;;;12.69;61.84;99635.28;4930347;29;20042;-85
2021/01/20 05:29:31;;;;;;;14.73;12.85;;;;;;;12.33;62.55;99621.69;4930850;29;20027;-84
2021/01/20 05:31:57;;;;;;;17.70;13.10;;;;;;;12.54;62.07;99633.03;4923866;29;20505;-83
2021/01/20 05:34:32;;;;;;;18.15;13.02;;;;;;;12.41;63.16;99638.75;4930152;29;20063;-82
2021/01/20 05:37:11;;;;;;;14.10;11.68;;;;;;;12.22;63.89;99644.34;4925367;29;20076;-83
2021/01/20 05:39:38;;;;;;;15.50;12.68;;;;;;;12.41;63.99;99644.22;4945386;28;20544;-83
2021/01/20 05:42:04;;;;;;;20.15;13.88;;;;;;;12.47;63.70;99644.06;4927234;29;20048;-82
2021/01/20 05:44:30;;;;;;;18.15;13.68;;;;;;;12.23;64.30;99636.97;4926857;29;20046;-82
2021/01/20 05:46:56;;;;;;;15.88;14.07;;;;;;;12.39;64.20;99628.09;4929054;29;20407;-84
2021/01/20 05:49:28;;;;;;;15.43;12.10;;;;;;;12.43;63.92;99626.53;4927646;29;20043;-85
2021/01/20 05:51:55;;;;;;;14.45;12.68;;;;;;;12.45;64.17;99626.28;4931303;29;20047;-82
2021/01/20 05:54:34;;;;;;;16.23;12.70;;;;;;;12.61;63.91;99616.56;4934167;29;20065;-82
2021/01/20 05:57:18;;;;;;;20.77;13.88;;;;;;;12.34;64.71;99628.81;4939457;29;20055;-86
2021/01/20 05:59:44;;;;;;;16.23;12.30;;;;;;;12.43;64.66;99620.25;4927072;29;20135;-84
2021/01/20 06:02:11;;;;;;;15.07;12.85;;;;;;;12.30;64.94;99629.53;4926330;29;20123;-83
2021/01/20 06:04:38;;;;;;;13.52;11.38;;;;;;;12.57;64.41;99620.81;4943382;29;20039;-81
2021/01/20 06:07:06;;;;;;;15.23;11.45;;;;;;;12.25;65.12;99610.31;4942077;29;20056;-83
2021/01/20 06:09:36;;;;;;;17.92;11.50;;;;;;;12.27;65.04;99616.38;4931347;29;20102;-86
2021/01/20 06:12:03;;;;;;;14.18;10.65;;;;;;;12.23;65.41;99601.53;4930169;29;20517;-83
2021/01/20 06:14:29;;;;;;;15.63;12.20;;;;;;;12.32;65.05;99614.56;4931217;29;20043;-86
2021/01/20 06:17:03;;;;;;;15.73;13.02;;;;;;;12.29;65.41;99604.13;4926780;29;20040;-84
2021/01/20 06:19:30;;;;;;;15.30;13.65;;;;;;;12.13;65.85;99605.69;4925845;29;20110;-84
2021/01/20 06:21:59;;;;;;;14.80;10.57;;;;;;;12.30;65.44;99589.44;4928785;29;20032;-86
2021/01/20 06:24:31;;;;;;;14.27;12.15;;;;;;;12.19;65.68;99603.91;4922560;29;20047;-85
2021/01/20 06:27:12;;;;;;;18.30;12.77;;;;;;;12.43;64.96;99582.91;4926335;29;20197;-83
2021/01/20 06:29:44;;;;;;;18.35;13.07;;;;;;;12.36;65.00;99595.84;4930697;29;20027;-84
2021/01/20 06:32:15;;;;;;;13.43;10.48;;;;;;;12.60;64.25;99601.25;4925743;29;20482;-82
2021/01/20 06:34:53;;;;;;;16.45;10.07;;;;;;;12.29;65.38;99595.13;4930652;29;20062;-84
2021/01/20 06:37:45;;;;;;;13.63;10.45;;;;;;;12.57;64.64;99599.00;4928142;29;20075;-84
2021/01/20 06:40:33;;;;;;;16.38;10.65;;;;;;;12.54;64.69;99594.84;4941923;29;20039;-86
2021/01/20 06:42:59;;;;;;;14.23;10.07;;;;;;;12.56;64.41;99594.59;4917509;29;20191;-88
2021/01/20 06:45:26;;;;;;;13.48;10.52;;;;;;;12.37;64.39;99583.84;4914263;29;20697;-85
2021/01/20 06:48:00;;;;;;;12.45;10.57;;;;;;;12.50;64.45;99589.06;4929343;29;20098;-84
2021/01/20 06:50:31;;;;;;;14.88;13.13;;;;;;;12.67;64.14;99599.22;4941812;29;20032;-83
2021/01/20 06:53:04;;;;;;;12.45;9.80;;;;;;;12.61;64.02;99584.66;4923691;29;20031;-87
2021/01/20 06:55:34;;;;;;;13.38;10.82;;;;;;;12.83;63.22;99590.28;4928193;29;20103;-82
2021/01/20 06:58:30;;;;;;;14.55;11.57;;;;;;;12.63;63.53;99579.78;4927398;29;20023;-83
2021/01/20 07:00:58;;;;;;;13.73;9.75;;;;;;;12.65;63.55;99584.97;4923281;29;20083;-84
2021/01/20 07:03:43;;;;;;;15.27;10.75;;;;;;;12.76;63.50;99575.09;4924783;29;20044;-84
2021/01/20 07:06:38;;;;;;;10.85;9.20;;;;;;;12.63;63.62;99573.50;4929971;29;20087;-83
2021/01/20 07:09:09;;;;;;;13.23;9.80;;;;;;;12.66;63.38;99573.00;4916110;29;20217;-83
2021/01/20 07:11:56;;;;;;;12.65;11.07;;;;;;;12.41;63.96;99578.78;4928500;29;20042;-84
2021/01/20 07:14:29;;;;;;;14.15;11.63;;;;;;;12.52;63.34;99584.19;4929791;29;20696;-83
2021/01/20 07:16:55;;;;;;;12.68;11.15;;;;;;;12.61;62.93;99575.66;4928438;29;20047;-83
2021/01/20 07:19:22;;;;;;;14.13;12.38;;;;;;;12.67;62.65;99580.13;4929828;29;20042;-86
2021/01/20 07:21:48;;;;;;;12.65;11.32;;;;;;;12.56;63.22;99587.28;4928407;29;20039;-83
2021/01/20 07:24:14;;;;;;;10.88;9.23;;;;;;;12.59;62.81;99580.50;4928460;29;20040;-85
2021/01/20 07:26:40;;;;;;;12.10;8.48;;;;;;;12.70;62.70;99574.19;4927065;29;20036;-85
2021/01/20 07:29:24;;;;;;;10.15;7.65;;;;;;;12.80;62.54;99574.38;4926052;29;20031;-86
2021/01/20 07:31:50;;;;;;;10.32;8.10;;;;;;;12.62;62.77;99577.28;4925608;29;20041;-87
2021/01/20 07:34:17;;;;;;;13.55;8.18;;;;;;;12.77;62.62;99576.78;4924374;29;20537;-84
2021/01/20 07:36:42;;;;;;;14.85;9.00;;;;;;;12.76;62.39;99564.19;4924474;29;20039;-85
2021/01/20 07:39:24;;;;;;;13.77;10.77;;;;;;;12.92;62.61;99574.34;4918963;29;20428;-84
2021/01/20 07:41:56;;;;;;;12.35;9.02;;;;;;;12.74;62.50;99572.63;4927957;29;20682;-83
2021/01/20 07:44:22;;;;;;;11.55;9.27;;;;;;;12.83;62.43;99565.72;4927442;29;20064;-85
2021/01/20 07:47:01;;;;;;;11.02;9.80;;;;;;;12.76;62.19;99556.88;4927782;29;20040;-83
2021/01/20 07:49:27;;;;;;;10.88;7.68;;;;;;;12.89;62.24;99570.19;4928335;29;20099;-85
2021/01/20 07:52:06;;;;;;;9.20;8.30;;;;;;;12.90;62.08;99569.13;4919310;29;20098;-82
2021/01/20 07:54:35;;;;;;;11.65;9.02;;;;;;;12.88;62.16;99574.00;4930221;29;20704;-82
2021/01/20 07:57:00;;;;;;;12.65;8.20;;;;;;;13.00;62.03;99570.41;4926195;29;20039;-83
2021/01/20 07:59:26;;;;;;;12.20;9.52;;;;;;;12.85;62.36;99565.47;4925908;29;20036;-82
2021/01/20 08:01:51;;;;;;;11.65;9.18;;;;;;;12.82;62.44;99575.00;4925931;29;20023;-85
2021/01/20 08:04:24;;;;;;;9.30;7.38;;;;;;;12.93;62.50;99578.75;4927086;29;20110;-83
2021/01/20 08:06:50;;;;;;;9.93;7.70;;;;;;;12.84;62.65;99577.47;4922065;29;20395;-83
2021/01/20 08:09:16;;;;;;;9.73;7.72;;;;;;;12.91;62.39;99569.94;4925263;29;20043;-84
2021/01/20 08:11:45;;;;;;;7.75;7.05;;;;;;;13.00;62.37;99573.13;4931343;29;20493;-85
2021/01/20 08:14:12;;;;;;;11.13;7.95;;;;;;;12.89;62.96;99574.84;4927306;29;20047;-83
2021/01/20 08:16:38;;;;;;;9.40;8.43;;;;;;;12.94;62.67;99574.09;4929710;29;20039;-85
2021/01/20 08:19:05;;;;;;;9.68;6.55;;;;;;;13.30;61.81;99577.50;4926891;29;20545;-85
2021/01/20 08:21:32;;;;;;;9.13;6.32;;;;;;;13.11;62.22;99572.25;4930687;29;20035;-84
2021/01/20 08:24:00;;;;;;;8.65;7.70;;;;;;;13.36;61.52;99560.16;4930401;29;20054;-87
2021/01/20 08:26:30;;;;;;;8.38;7.45;;;;;;;13.17;61.96;99567.72;4929265;29;20574;-86
2021/01/20 08:29:05;;;;;;;12.10;7.05;;;;;;;13.17;61.58;99576.72;4925984;29;20048;-88
2021/01/20 08:31:31;;;;;;;6.90;5.93;;;;;;;13.13;61.54;99561.94;4923382;29;20039;-88
2021/01/20 08:34:23;;;;;;;8.10;7.07;;;;;;;13.13;61.64;99572.00;4927266;28;20394;-85
2021/01/20 08:36:51;;;;;;;;;;;;;;;13.20;61.26;99575.41;4944372;29;20138;-87
2021/01/20 08:39:16;;;;;;;9.52;7.35;;;;;;;13.37;60.77;99586.41;4930414;29;19923;-86
2021/01/20 08:41:42;;;;;;;9.40;6.00;;;;;;;13.32;61.29;99575.38;4930599;29;20042;-88
2021/01/20 08:44:15;;;;;;;8.68;6.00;;;;;;;13.04;61.19;99575.13;4928772;29;20032;-88
2021/01/20 08:46:40;;;;;;;7.90;5.80;;;;;;;13.25;61.26;99579.06;4926939;29;20046;-84
2021/01/20 08:49:07;;;;;;;7.60;6.90;;;;;;;13.11;61.35;99568.69;4928727;29;20035;-85
2021/01/20 08:51:32;;;;;;;9.13;8.25;;;;;;;13.33;60.77;99588.81;4928835;29;20399;-84
2021/01/20 08:54:11;;;;;;;8.90;7.43;;;;;;;13.19;60.95;99568.28;4927544;29;20039;-86
2021/01/20 08:56:36;;;;;;;7.43;6.68;;;;;;;13.10;61.21;99586.97;4925070;29;20125;-86
2021/01/20 08:59:04;;;;;;;9.75;8.32;;;;;;;13.14;61.26;99588.13;4926245;29;20040;-85
2021/01/20 09:01:30;;;;;;;7.65;5.50;;;;;;;13.16;60.93;99575.09;4924447;29;20479;-88
2021/01/20 09:04:01;;;;;;;8.18;6.70;;;;;;;13.15;61.08;99576.16;4925993;29;20134;-86
2021/01/20 09:06:27;;;;;;;13.02;8.88;;;;;;;13.24;60.56;99579.31;4926400;29;20792;-85
2021/01/20 09:08:53;;;;;;;7.47;6.72;;;;;;;13.38;60.27;99582.59;4928158;29;20119;-86
2021/01/20 09:11:20;;;;;;;5.95;5.35;;;;;;;13.13;60.38;99585.66;4926671;29;20039;-88
2021/01/20 09:13:45;;;;;;;9.10;7.57;;;;;;;13.07;61.01;99576.56;4927839;29;20051;-90
2021/01/20 09:16:11;;;;;;;8.77;7.97;;;;;;;13.22;60.29;99570.53;4926063;29;20036;-85
2021/01/20 09:18:37;;;;;;;6.45;5.75;;;;;;;13.28;60.27;99587.84;4930861;29;20148;-86
2021/01/20 09:21:02;;;;;;;6.70;5.50;;;;;;;13.25;59.87;99570.88;4924632;29;20491;-86
2021/01/20 09:23:28;;;;;;;11.45;6.38;;;;;;;13.32;59.91;99580.81;4928808;29;20087;-87
2021/01/20 09:25:54;;;;;;;7.47;6.80;;;;;;;13.27;59.58;99576.09;4925552;29;20052;-85
2021/01/20 09:28:20;;;;;;;6.03;5.43;;;;;;;13.27;59.62;99581.56;4924103;29;20036;-85
2021/01/20 09:30:46;;;;;;;8.20;5.03;;;;;;;13.29;59.75;99589.50;4926376;29;20038;-87
2021/01/20 09:33:11;;;;;;;5.55;4.90;;;;;;;13.30;59.88;99586.53;4926718;29;20043;-85
2021/01/20 09:35:37;;;;;;;6.88;5.75;;;;;;;13.15;59.17;99578.88;4923652;29;20107;-87
2021/01/20 09:38:04;;;;;;;9.52;6.13;;;;;;;13.14;59.69;99588.13;4928796;29;20511;-86
2021/01/20 09:40:30;;;;;;;5.95;5.38;;;;;;;13.13;59.87;99585.66;4924262;29;20068;-85
2021/01/20 09:42:55;;;;;;;5.30;4.80;;;;;;;12.99;59.50;99583.22;4926220;29;20043;-87
2021/01/20 09:45:26;;;;;;;6.40;5.60;;;;;;;13.03;59.61;99586.28;4920365;29;20040;-86
2021/01/20 09:47:51;;;;;;;7.90;4.25;;;;;;;13.29;58.91;99578.59;4927159;29;20098;-85
2021/01/20 09:50:17;;;;;;;6.72;5.13;;;;;;;13.23;59.15;99577.66;4929736;29;20032;-84
2021/01/20 09:52:44;;;;;;;6.93;5.82;;;;;;;13.23;58.73;99577.66;4926973;29;20722;-86
2021/01/20 09:55:11;;;;;;;6.97;5.18;;;;;;;13.33;58.68;99577.00;4926973;29;20062;-82
2021/01/20 09:57:37;;;;;;;7.65;5.88;;;;;;;13.09;58.81;99568.94;4925223;29;20043;-87
2021/01/20 10:00:05;;;;;;;5.80;5.28;;;;;;;13.14;58.59;99566.28;4928380;29;20410;-87
2021/01/20 10:02:30;;;;;;;9.77;6.32;;;;;;;13.33;58.35;99568.81;4923306;29;20067;-83
2021/01/20 10:04:56;;;;;;;5.47;4.68;;;;;;;13.09;58.60;99577.13;4908902;29;20040;-84
2021/01/20 10:07:23;;;;;;;6.53;5.03;;;;;;;13.13;58.61;99572.00;4912211;29;20044;-83
2021/01/20 10:09:49;;;;;;;7.03;4.53;;;;;;;13.20;58.42;99586.34;4910037;29;20028;-84
2021/01/20 10:12:14;;;;;;;6.95;4.47;;;;;;;12.94;58.54;99569.47;4925609;29;20094;-87
2021/01/20 10:14:41;;;;;;;7.18;5.18;;;;;;;13.26;58.24;99567.06;4926541;29;20031;-87
2021/01/20 10:17:07;;;;;;;8.45;6.63;;;;;;;13.46;58.22;99557.59;4924703;29;20118;-83
2021/01/20 10:19:33;;;;;;;10.30;6.53;;;;;;;13.30;58.18;99544.72;4926258;29;20031;-85
2021/01/20 10:21:58;;;;;;;7.85;6.15;;;;;;;13.40;57.90;99553.13;4927305;29;20040;-86
2021/01/20 10:24:24;;;;;;;10.75;5.35;;;;;;;13.41;57.78;99552.06;4926365;29;20052;-85
2021/01/20 10:26:50;;;;;;;6.63;5.72;;;;;;;13.43;57.84;99541.72;4929221;29;20020;-85
2021/01/20 10:29:15;;;;;;;7.43;6.32;;;;;;;13.57;57.84;99547.69;4923888;29;21341;-86
2021/01/20 10:31:43;;;;;;;7.78;6.78;;;;;;;13.55;57.49;99536.19;4927287;29;20070;-87
2021/01/20 10:34:11;;;;;;;6.07;5.20;;;;;;;13.59;57.22;99532.72;4923700;29;20043;-84
2021/01/20 10:36:38;;;;;;;7.03;6.53;;;;;;;13.68;57.27;99527.63;4928062;29;20142;-89
2021/01/20 10:39:04;;;;;;;7.18;6.00;;;;;;;13.45;57.08;99522.34;4927581;29;20063;-87
2021/01/20 10:41:30;;;;;;;6.97;5.72;;;;;;;13.54;56.89;99510.75;4941897;29;20035;-84
2021/01/20 10:43:55;;;;;;;9.95;8.98;;;;;;;13.67;56.73;99515.06;4927006;29;20031;-86
2021/01/20 10:46:28;;;;;;;5.95;5.13;;;;;;;13.66;56.87;99518.06;4927929;29;20035;-85
2021/01/20 10:48:55;;;;;;;9.23;6.63;;;;;;;13.49;56.87;99518.88;4925679;29;20113;-86
2021/01/20 10:51:21;;;;;;;4.80;4.30;;;;;;;13.42;56.93;99513.59;4928456;29;20035;-85
2021/01/20 10:53:47;;;;;;;7.03;5.60;;;;;;;13.35;57.14;99512.09;4920465;29;20483;-87
2021/01/20 10:56:12;;;;;;;5.75;5.25;;;;;;;13.50;56.97;99504.16;4924488;29;20059;-87
2021/01/20 10:58:37;;;;;;;6.82;5.32;;;;;;;13.44;57.75;99502.41;4924793;29;20042;-90
2021/01/20 11:01:03;;;;;;;5.15;3.67;;;;;;;13.46;57.14;99505.72;4926232;29;20046;-87
2021/01/20 11:03:29;;;;;;;7.20;4.50;;;;;;;13.42;57.43;99502.66;4926419;29;20043;-85
2021/01/20 11:05:54;;;;;;;6.93;4.22;;;;;;;13.72;56.74;99504.22;4912588;29;20084;-85
2021/01/20 11:08:20;;;;;;;6.13;5.35;;;;;;;13.73;56.14;99500.41;4924213;29;20090;-86
2021/01/20 11:10:46;;;;;;;6.85;6.25;;;;;;;13.60;57.06;99487.91;4925461;29;20398;-83
2021/01/20 11:13:11;;;;;;;7.07;6.00;;;;;;;13.82;56.45;99481.66;4924126;29;20434;-83
2021/01/20 11:15:38;;;;;;;9.75;8.15;;;;;;;13.68;56.35;99485.84;4926889;29;20036;-88
2021/01/20 11:18:05;;;;;;;6.00;5.53;;;;;;;13.84;56.06;99485.00;4928496;29;20028;-83
2021/01/20 11:20:31;;;;;;;6.50;5.70;;;;;;;13.71;56.71;99488.06;4924573;29;20042;-84
2021/01/20 11:22:56;;;;;;;6.00;5.47;;;;;;;13.91;56.81;99473.88;4928456;29;20040;-82
2021/01/20 11:25:22;;;;;;;7.28;6.65;;;;;;;13.83;57.11;99472.38;4923544;29;20040;-84
2021/01/20 11:27:48;;;;;;;5.63;5.13;;;;;;;13.94;56.87;99471.44;4927234;29;20534;-82